createdAt,value
2018-01-03T00:02:26.047Z,26.23
2018-01-03T00:04:56.111Z,26.87
2018-01-03T00:07:36.106Z,24.33
2018-01-03T00:10:02.831Z,24.30
2018-01-03T00:12:36.432Z,25.97
2018-01-03T00:15:03.138Z,25.03
2018-01-03T00:17:29.886Z,22.67
2018-01-03T00:19:56.738Z,24.27
2018-01-03T00:22:23.473Z,21.63
2018-01-03T00:24:50.180Z,22.27
2018-01-03T00:27:16.939Z,25.00
2018-01-03T00:29:44.660Z,23.97
2018-01-03T00:32:18.139Z,24.50
2018-01-03T00:34:44.880Z,25.00
2018-01-03T00:37:11.630Z,25.60
2018-01-03T00:39:38.454Z,29.73
2018-01-03T00:42:05.169Z,29.40
2018-01-03T00:44:31.874Z,28.10
2018-01-03T00:46:58.642Z,26.60
2018-01-03T00:49:25.374Z,28.47
2018-01-03T00:51:52.104Z,29.37
2018-01-03T00:54:18.990Z,29.23
2018-01-03T00:56:58.069Z,31.47
2018-01-03T00:59:24.878Z,26.80
2018-01-03T01:01:51.589Z,30.43
2018-01-03T01:04:18.303Z,28.57
2018-01-03T01:06:45.131Z,30.23
2018-01-03T01:09:11.864Z,28.37
2018-01-03T01:11:39.647Z,28.37
2018-01-03T01:14:06.361Z,28.53
2018-01-03T01:16:34.110Z,26.87
2018-01-03T01:19:00.822Z,29.33
2018-01-03T01:21:33.445Z,30.67
2018-01-03T01:24:00.147Z,29.43
2018-01-03T01:26:27.937Z,29.57
2018-01-03T01:28:55.705Z,29.40
2018-01-03T01:31:23.447Z,29.00
2018-01-03T01:33:51.146Z,30.77
2018-01-03T01:36:17.899Z,32.30
2018-01-03T01:38:44.615Z,31.70
2018-01-03T01:41:11.366Z,31.20
2018-01-03T01:43:38.107Z,26.60
2018-01-03T01:46:04.843Z,30.03
2018-01-03T01:48:31.631Z,31.53
2018-01-03T01:50:59.365Z,32.03
2018-01-03T01:53:26.086Z,37.70
2018-01-03T01:55:53.290Z,46.37
2018-01-03T01:58:21.075Z,49.53
2018-01-03T02:00:47.801Z,58.67
2018-01-03T02:03:14.515Z,59.90
2018-01-03T02:05:41.329Z,55.03
2018-01-03T02:08:09.027Z,60.07
2018-01-03T02:10:40.265Z,62.93
2018-01-03T02:13:06.971Z,63.17
2018-01-03T02:15:33.673Z,59.63
2018-01-03T02:18:00.409Z,57.90
2018-01-03T02:20:27.206Z,58.83
2018-01-03T02:22:55.011Z,59.23
2018-01-03T02:25:22.671Z,58.43
2018-01-03T02:28:03.723Z,49.20
2018-01-03T02:30:36.066Z,51.77
2018-01-03T02:33:02.833Z,53.10
2018-01-03T02:35:32.611Z,53.10
2018-01-03T02:38:00.357Z,53.67
2018-01-03T02:40:33.897Z,53.67
2018-01-03T02:43:02.591Z,47.63
2018-01-03T02:45:33.837Z,51.77
2018-01-03T02:48:01.729Z,47.73
2018-01-03T02:50:29.511Z,51.37
2018-01-03T02:52:57.260Z,52.23
2018-01-03T02:55:23.999Z,48.40
2018-01-03T02:57:51.751Z,48.87
2018-01-03T03:00:24.319Z,48.17
2018-01-03T03:02:52.293Z,48.53
2018-01-03T03:05:20.961Z,46.23
2018-01-03T03:07:47.691Z,46.20
2018-01-03T03:10:14.455Z,46.70
2018-01-03T03:12:47.889Z,44.20
2018-01-03T03:15:15.619Z,43.33
2018-01-03T03:17:43.289Z,43.33
2018-01-03T03:20:10.016Z,42.63
2018-01-03T03:22:41.398Z,42.30
2018-01-03T03:25:08.152Z,44.17
2018-01-03T03:27:35.321Z,47.00
2018-01-03T03:30:03.483Z,45.93
2018-01-03T03:32:30.267Z,46.67
2018-01-03T03:35:03.701Z,47.17
2018-01-03T03:37:31.387Z,45.27
2018-01-03T03:40:09.932Z,44.70
2018-01-03T03:42:36.725Z,48.70
2018-01-03T03:45:04.071Z,49.37
2018-01-03T03:47:32.819Z,53.57
2018-01-03T03:50:01.734Z,50.37
2018-01-03T03:52:29.527Z,48.57
2018-01-03T03:55:02.300Z,47.50
2018-01-03T03:57:34.889Z,44.67
2018-01-03T04:00:01.579Z,44.90
2018-01-03T04:02:28.343Z,46.13
2018-01-03T04:05:03.109Z,44.50
2018-01-03T04:07:31.871Z,44.77
2018-01-03T04:09:58.579Z,42.47
2018-01-03T04:12:31.672Z,44.90
2018-01-03T04:15:00.412Z,40.10
2018-01-03T04:17:41.968Z,38.80
2018-01-03T04:20:08.742Z,35.63
2018-01-03T04:22:36.557Z,36.83
2018-01-03T04:25:15.969Z,36.60
2018-01-03T04:27:48.027Z,35.33
2018-01-03T04:30:16.961Z,38.63
2018-01-03T04:32:45.675Z,37.43
2018-01-03T04:35:12.419Z,36.03
2018-01-03T04:37:40.177Z,33.33
2018-01-03T04:40:07.816Z,36.20
2018-01-03T04:42:35.533Z,37.67
2018-01-03T04:45:05.851Z,34.40
2018-01-03T04:47:32.591Z,36.13
2018-01-03T04:49:59.315Z,34.00
2018-01-03T04:52:37.141Z,30.03
2018-01-03T04:55:03.883Z,34.93
2018-01-03T04:57:32.570Z,34.73
2018-01-03T04:59:59.399Z,37.27
2018-01-03T05:02:29.847Z,40.20
2018-01-03T05:04:58.580Z,43.17
2018-01-03T05:07:26.333Z,46.00
2018-01-03T05:10:04.513Z,44.27
2018-01-03T05:12:34.391Z,41.57
2018-01-03T05:15:17.661Z,45.43
2018-01-03T05:17:48.163Z,42.33
2018-01-03T05:20:18.229Z,44.27
2018-01-03T05:22:45.915Z,46.03
2018-01-03T05:25:14.656Z,43.33
2018-01-03T05:36:14.653Z,52.10
2018-01-03T05:38:47.848Z,48.03
2018-01-03T05:41:22.922Z,46.57
2018-01-03T05:43:49.703Z,53.03
2018-01-03T05:46:16.387Z,48.37
2018-01-03T05:51:40.587Z,45.33
2018-01-03T06:13:36.896Z,47.93
2018-01-03T06:16:03.603Z,47.37
2018-01-03T06:21:15.855Z,41.87
2018-01-03T06:23:48.052Z,41.23
2018-01-03T06:26:26.549Z,40.47
2018-01-03T06:28:56.372Z,45.33
2018-01-03T06:31:28.892Z,44.13
2018-01-03T06:33:56.622Z,47.00
2018-01-03T06:36:41.765Z,51.17
2018-01-03T06:39:23.823Z,51.90
2018-01-03T06:44:37.141Z,55.03
2018-01-03T06:50:06.046Z,57.03
2018-01-03T06:52:40.239Z,54.83
2018-01-03T06:55:08.957Z,54.47
2018-01-03T06:57:54.130Z,58.50
2018-01-03T07:03:25.935Z,66.20
2018-01-03T07:14:11.032Z,60.77
2018-01-03T07:16:51.654Z,56.43
2018-01-03T07:19:26.909Z,48.87
2018-01-03T07:22:20.175Z,51.93
2018-01-03T07:24:48.088Z,52.53
2018-01-03T07:27:23.074Z,58.27
2018-01-03T07:30:02.478Z,48.00
2018-01-03T07:32:46.488Z,44.80
2018-01-03T07:35:14.179Z,44.63
2018-01-03T07:40:26.719Z,42.63
2018-01-03T07:42:53.423Z,45.53
2018-01-03T07:45:20.163Z,46.00
2018-01-03T07:47:50.274Z,48.43
2018-01-03T07:50:33.290Z,49.43
2018-01-03T07:53:03.288Z,46.50
2018-01-03T07:55:29.977Z,44.33
2018-01-03T07:58:00.641Z,45.70
2018-01-03T08:00:28.376Z,48.40
2018-01-03T08:03:06.794Z,48.43
2018-01-03T08:08:24.016Z,49.57
2018-01-03T08:10:58.087Z,42.40
2018-01-03T08:13:41.588Z,44.03
2018-01-03T08:16:25.210Z,40.57
2018-01-03T08:19:00.386Z,38.17
2018-01-03T08:21:28.949Z,36.73
2018-01-03T08:24:01.254Z,34.43
2018-01-03T08:26:28.026Z,32.17
2018-01-03T08:29:02.440Z,30.73
2018-01-03T08:31:30.250Z,31.43
2018-01-03T08:33:57.606Z,28.00
2018-01-03T08:36:36.957Z,29.57
2018-01-03T08:39:14.988Z,27.10
2018-01-03T08:41:47.892Z,26.70
2018-01-03T08:44:14.631Z,26.00
2018-01-03T08:46:45.150Z,28.33
2018-01-03T08:49:13.930Z,28.33
2018-01-03T08:54:27.934Z,33.77
2018-01-03T08:56:56.612Z,32.40
2018-01-03T08:59:31.572Z,29.90
2018-01-03T09:02:12.828Z,29.63
2018-01-03T09:04:43.578Z,28.90
2018-01-03T09:07:10.328Z,27.77
2018-01-03T09:09:40.052Z,27.37
2018-01-03T09:12:06.818Z,27.90
2018-01-03T09:14:35.504Z,27.07
2018-01-03T09:17:10.438Z,28.43
2018-01-03T09:19:38.190Z,26.47
2018-01-03T09:22:05.212Z,19.47
2018-01-03T09:24:33.958Z,19.83
2018-01-03T09:27:00.654Z,16.67
2018-01-03T09:29:31.704Z,15.43
2018-01-03T09:32:00.402Z,13.00
2018-01-03T09:34:27.111Z,13.63
2018-01-03T09:36:58.806Z,12.23
2018-01-03T09:39:25.520Z,9.97
2018-01-03T09:41:58.802Z,10.40
2018-01-03T09:44:37.495Z,9.17
2018-01-03T09:47:14.303Z,10.80
2018-01-03T09:52:44.305Z,10.33
2018-01-03T09:55:19.366Z,10.13
2018-01-03T09:58:03.686Z,10.33
2018-01-03T10:03:23.788Z,9.87
2018-01-03T10:05:52.575Z,9.00
2018-01-03T10:08:20.314Z,10.40
2018-01-03T10:10:47.014Z,8.93
2018-01-03T10:13:31.241Z,8.93
2018-01-03T10:15:57.954Z,9.50
2018-01-03T10:18:37.351Z,8.37
2018-01-03T10:21:15.449Z,9.93
2018-01-03T10:23:43.131Z,10.93
2018-01-03T10:26:09.951Z,11.87
2018-01-03T10:28:55.641Z,10.93
2018-01-03T10:31:24.345Z,10.73
2018-01-03T10:33:51.057Z,9.57
2018-01-03T10:36:19.766Z,9.37
2018-01-03T10:38:46.905Z,11.47
2018-01-03T10:41:14.719Z,9.50
2018-01-03T10:43:43.432Z,11.93
2018-01-03T10:46:10.158Z,9.73
2018-01-03T10:48:38.865Z,10.13
2018-01-03T10:51:10.133Z,9.33
2018-01-03T10:53:46.463Z,8.00
2018-01-03T10:56:25.916Z,7.13
2018-01-03T10:59:00.744Z,6.70
2018-01-03T11:01:27.475Z,7.40
2018-01-03T11:03:54.199Z,6.97
2018-01-03T11:06:24.987Z,6.10
2018-01-03T11:11:38.211Z,4.17
2018-01-03T11:14:05.019Z,4.23
2018-01-03T11:16:37.616Z,4.60
2018-01-03T11:19:06.341Z,5.37
2018-01-03T11:21:33.023Z,3.67
2018-01-03T11:24:06.913Z,5.50
2018-01-03T11:26:33.601Z,7.53
2018-01-03T11:29:00.298Z,4.70
2018-01-03T11:31:27.093Z,5.27
2018-01-03T11:34:03.979Z,4.30
2018-01-03T11:36:38.951Z,3.23
2018-01-03T11:39:07.775Z,4.20
2018-01-03T11:41:38.775Z,3.27
2018-01-03T11:44:07.506Z,3.20
2018-01-03T11:46:35.244Z,3.23
2018-01-03T11:49:01.977Z,3.47
2018-01-03T11:51:35.987Z,4.57
2018-01-03T11:54:06.223Z,5.13
2018-01-03T11:59:20.175Z,4.47
2018-01-03T12:07:21.829Z,3.70
2018-01-03T12:09:48.563Z,4.07
2018-01-03T12:12:15.254Z,4.03
2018-01-03T12:14:41.965Z,3.57
2018-01-03T12:17:09.335Z,3.70
2018-01-03T12:19:36.039Z,4.50
2018-01-03T12:22:04.765Z,4.43
2018-01-03T12:24:31.489Z,4.87
2018-01-03T12:26:59.234Z,5.47
2018-01-03T12:32:25.535Z,7.50
2018-01-03T12:34:53.384Z,7.30
2018-01-03T12:37:20.138Z,6.03
2018-01-03T12:39:47.884Z,6.67
2018-01-03T12:42:14.672Z,7.43
2018-01-03T12:44:42.387Z,4.63
2018-01-03T12:47:12.178Z,5.47
2018-01-03T12:49:39.710Z,4.43
2018-01-03T12:52:09.924Z,7.30
2018-01-03T12:54:53.767Z,6.17
2018-01-03T12:57:20.485Z,7.67
2018-01-03T12:59:51.942Z,7.27
2018-01-03T13:02:23.711Z,8.17
2018-01-03T13:04:50.459Z,9.27
2018-01-03T13:07:24.979Z,7.47
2018-01-03T13:12:38.146Z,8.60
2018-01-03T13:15:04.864Z,9.13
2018-01-03T13:17:31.595Z,10.63
2018-01-03T13:19:59.272Z,11.10
2018-01-03T13:22:34.454Z,14.13
2018-01-03T13:25:09.647Z,18.10
2018-01-03T13:27:36.339Z,15.47
2018-01-03T13:30:10.107Z,14.97
2018-01-03T13:32:36.858Z,14.07
2018-01-03T13:35:08.812Z,17.93
2018-01-03T13:37:40.583Z,17.60
2018-01-03T13:40:07.332Z,17.43
2018-01-03T13:42:34.057Z,18.00
2018-01-03T13:50:34.079Z,24.87
2018-01-03T13:53:00.809Z,25.03
2018-01-03T13:55:34.723Z,22.70
2018-01-03T13:58:10.047Z,20.53
2018-01-03T14:00:46.733Z,18.03
2018-01-03T14:03:13.448Z,18.97
2018-01-03T14:05:40.249Z,18.80
2018-01-03T14:08:10.931Z,17.50
2018-01-03T14:10:50.978Z,15.23
2018-01-03T14:16:17.918Z,7.17
2018-01-03T14:21:34.104Z,5.57
2018-01-03T14:24:00.871Z,7.80
2018-01-03T14:26:27.575Z,7.60
2018-01-03T14:28:54.293Z,8.50
2018-01-03T14:31:20.999Z,10.93
2018-01-03T14:33:57.849Z,21.87
2018-01-03T14:36:24.615Z,11.40
2018-01-03T14:38:52.316Z,8.70
2018-01-03T14:41:22.123Z,15.00
2018-01-03T14:43:49.896Z,10.80
2018-01-03T14:49:18.931Z,7.70
2018-01-03T14:51:50.325Z,8.43
2018-01-03T14:54:17.046Z,7.30
2018-01-03T14:56:43.722Z,8.47
2018-01-03T14:59:10.401Z,7.83
2018-01-03T15:01:37.111Z,7.30
2018-01-03T15:04:18.128Z,5.50
2018-01-03T15:06:44.843Z,5.70
2018-01-03T15:09:11.519Z,5.53
2018-01-03T15:11:38.203Z,5.13
2018-01-03T15:14:09.463Z,5.17
2018-01-03T15:16:36.144Z,4.83
2018-01-03T15:19:03.039Z,6.37
2018-01-03T15:21:29.765Z,7.03
2018-01-03T15:23:56.467Z,8.23
2018-01-03T15:26:30.349Z,7.47
2018-01-03T15:28:57.041Z,6.10
2018-01-03T15:31:23.740Z,6.77
2018-01-03T15:33:50.490Z,5.87
2018-01-03T15:36:17.197Z,5.50
2018-01-03T15:38:44.271Z,5.27
2018-01-03T15:41:11.039Z,6.00
2018-01-03T15:43:41.133Z,6.90
2018-01-03T15:46:07.831Z,10.23
2018-01-03T15:48:34.591Z,10.37
2018-01-03T15:51:01.274Z,9.90
2018-01-03T15:53:29.964Z,10.73
2018-01-03T15:55:56.707Z,11.43
2018-01-03T15:58:24.649Z,12.20
2018-01-03T16:00:51.351Z,12.23
2018-01-03T16:03:18.105Z,15.30
2018-01-03T16:05:44.851Z,15.80
2018-01-03T16:08:11.540Z,13.50
2018-01-03T16:10:38.765Z,11.93
2018-01-03T16:13:05.459Z,11.83
2018-01-03T16:15:32.148Z,13.60
2018-01-03T16:17:59.224Z,13.00
2018-01-03T16:20:25.939Z,11.00
2018-01-03T16:22:52.637Z,11.20
2018-01-03T16:25:19.374Z,9.37
2018-01-03T16:27:46.226Z,9.80
2018-01-03T16:30:12.956Z,9.20
2018-01-03T16:32:39.675Z,9.07
2018-01-03T16:37:53.281Z,8.57
2018-01-03T16:40:19.985Z,8.63
2018-01-03T16:42:46.670Z,8.20
2018-01-03T16:45:13.388Z,6.63
2018-01-03T16:47:40.134Z,6.30
2018-01-03T16:50:06.867Z,7.43
2018-01-03T16:52:39.779Z,7.43
2018-01-03T16:55:06.474Z,7.07
2018-01-03T16:57:33.211Z,5.93
2018-01-03T16:59:59.963Z,6.40
2018-01-03T17:02:27.070Z,6.97
2018-01-03T17:04:53.763Z,7.67
2018-01-03T17:07:20.462Z,7.37
2018-01-03T17:09:47.144Z,7.23
2018-01-03T17:12:13.832Z,8.10
2018-01-03T17:14:40.534Z,7.67
2018-01-03T17:17:07.254Z,8.60
2018-01-03T17:19:33.959Z,7.83
2018-01-03T17:22:00.656Z,9.67
2018-01-03T17:24:27.350Z,9.03
2018-01-03T17:26:54.075Z,8.63
2018-01-03T17:29:20.775Z,8.00
2018-01-03T17:31:47.468Z,7.17
2018-01-03T17:34:14.152Z,8.43
2018-01-03T17:36:41.387Z,8.73
2018-01-03T17:39:08.109Z,10.73
2018-01-03T17:41:34.802Z,12.73
2018-01-03T17:44:01.596Z,11.83
2018-01-03T17:46:28.298Z,9.40
2018-01-03T17:48:55.011Z,8.50
2018-01-03T17:51:21.736Z,8.50
2018-01-03T17:53:48.418Z,8.93
2018-01-03T17:56:15.112Z,8.60
2018-01-03T17:58:41.810Z,9.07
2018-01-03T18:01:08.494Z,8.23
2018-01-03T18:03:35.172Z,8.33
2018-01-03T18:06:01.925Z,7.67
2018-01-03T18:08:28.613Z,8.00
2018-01-03T18:10:55.316Z,8.67
2018-01-03T18:13:24.097Z,9.10
2018-01-03T18:15:50.796Z,10.17
2018-01-03T18:18:17.581Z,8.97
2018-01-03T18:20:44.271Z,10.10
2018-01-03T18:23:10.950Z,9.43
2018-01-03T18:25:37.665Z,10.40
2018-01-03T18:28:04.422Z,8.90
2018-01-03T18:30:31.141Z,9.93
2018-01-03T18:32:57.822Z,9.10
2018-01-03T18:35:24.564Z,9.00
2018-01-03T18:37:51.275Z,9.73
2018-01-03T18:40:18.179Z,9.73
2018-01-03T18:42:52.459Z,8.33
2018-01-03T18:45:19.186Z,8.63
2018-01-03T18:47:45.875Z,8.87
2018-01-03T18:50:12.605Z,9.80
2018-01-03T18:52:39.291Z,9.47
2018-01-03T18:55:06.045Z,11.03
2018-01-03T18:57:32.753Z,10.80
2018-01-03T18:59:59.440Z,11.57
2018-01-03T19:02:26.140Z,12.03
2018-01-03T19:04:52.852Z,11.27
2018-01-03T19:07:19.559Z,12.40
2018-01-03T19:09:46.320Z,11.97
2018-01-03T19:12:13.036Z,12.40
2018-01-03T19:14:40.274Z,12.70
2018-01-03T19:17:07.478Z,13.93
2018-01-03T19:19:34.181Z,13.47
2018-01-03T19:22:01.236Z,14.23
2018-01-03T19:24:27.943Z,13.70
2018-01-03T19:26:54.643Z,12.57
2018-01-03T19:29:21.345Z,13.03
2018-01-03T19:31:48.063Z,13.70
2018-01-03T19:34:14.764Z,13.10
2018-01-03T19:36:41.473Z,14.17
2018-01-03T19:39:08.168Z,14.13
2018-01-03T19:41:34.884Z,14.00
2018-01-03T19:44:01.585Z,13.83
2018-01-03T19:46:28.280Z,14.70
2018-01-03T19:48:54.995Z,15.63
2018-01-03T19:51:21.705Z,14.40
2018-01-03T19:53:48.413Z,13.57
2018-01-03T19:56:15.450Z,15.57
2018-01-03T19:58:42.125Z,14.13
2018-01-03T20:01:08.858Z,18.27
2018-01-03T20:03:35.571Z,16.00
2018-01-03T20:06:02.271Z,18.93
2018-01-03T20:08:28.983Z,16.33
2018-01-03T20:10:55.779Z,17.57
2018-01-03T20:13:22.939Z,15.57
2018-01-03T20:15:50.135Z,14.63
2018-01-03T20:18:16.858Z,15.60
2018-01-03T20:20:43.555Z,16.50
2018-01-03T20:23:10.264Z,15.73
2018-01-03T20:25:36.972Z,16.27
2018-01-03T20:28:03.683Z,15.27
2018-01-03T20:30:31.039Z,13.83
2018-01-03T20:32:57.811Z,14.20
2018-01-03T20:35:24.531Z,13.90
2018-01-03T20:37:51.223Z,11.67
2018-01-03T20:40:17.965Z,11.80
2018-01-03T20:42:44.655Z,12.30
2018-01-03T20:45:11.426Z,11.53
2018-01-03T20:47:39.110Z,12.50
2018-01-03T20:50:05.818Z,10.00
2018-01-03T20:52:32.901Z,11.33
2018-01-03T20:54:59.615Z,10.10
2018-01-03T20:57:26.307Z,8.67
2018-01-03T20:59:53.439Z,9.73
2018-01-03T21:02:20.150Z,10.10
2018-01-03T21:04:46.847Z,9.30
2018-01-03T21:07:13.565Z,9.27
2018-01-03T21:09:40.283Z,7.77
2018-01-03T21:12:06.963Z,8.70
2018-01-03T21:14:33.653Z,7.83
2018-01-03T21:17:00.394Z,7.57
2018-01-03T21:19:27.084Z,7.70
2018-01-03T21:21:53.779Z,7.43
2018-01-03T21:24:20.484Z,8.30
2018-01-03T21:26:47.201Z,7.87
2018-01-03T21:29:13.893Z,8.63
2018-01-03T21:31:40.611Z,9.70
2018-01-03T21:34:07.295Z,9.67
2018-01-03T21:36:34.007Z,9.70
2018-01-03T21:39:00.737Z,10.87
2018-01-03T21:41:27.441Z,9.80
2018-01-03T21:43:55.153Z,9.80
2018-01-03T21:46:21.965Z,8.80
2018-01-03T21:48:48.660Z,9.60
2018-01-03T21:51:15.349Z,9.47
2018-01-03T21:53:42.053Z,10.40
2018-01-03T21:56:08.825Z,9.87
2018-01-03T21:58:35.535Z,10.53
2018-01-03T22:01:03.231Z,9.40
2018-01-03T22:03:29.925Z,8.87
2018-01-03T22:05:59.963Z,8.77
2018-01-03T22:08:34.581Z,8.77
2018-01-03T22:11:01.308Z,10.13
2018-01-03T22:13:37.664Z,8.70
2018-01-03T22:16:09.073Z,7.90
2018-01-03T22:18:35.787Z,8.17
2018-01-03T22:21:02.543Z,7.50
2018-01-03T22:23:29.233Z,7.40
2018-01-03T22:26:08.696Z,7.67
2018-01-03T22:31:28.687Z,8.03
2018-01-03T22:33:55.373Z,8.13
2018-01-03T22:36:22.079Z,7.43
2018-01-03T22:38:48.851Z,7.13
2018-01-03T22:41:31.737Z,6.47
2018-01-03T22:44:02.435Z,8.53
2018-01-03T22:46:29.131Z,8.07
2018-01-03T22:48:59.491Z,8.03
2018-01-03T22:51:26.202Z,8.70
2018-01-03T22:53:56.919Z,7.87
2018-01-03T22:56:24.309Z,8.90
2018-01-03T22:58:56.911Z,8.57
2018-01-03T23:04:14.174Z,8.13
2018-01-03T23:06:40.860Z,9.67
2018-01-03T23:09:07.556Z,7.40
2018-01-03T23:11:43.386Z,8.13
2018-01-03T23:19:44.708Z,8.20
2018-01-03T23:22:12.234Z,7.27
2018-01-03T23:24:50.694Z,7.50
2018-01-03T23:27:17.479Z,7.20
2018-01-03T23:29:44.176Z,7.37
2018-01-03T23:32:13.508Z,6.57
2018-01-03T23:34:52.792Z,6.23
2018-01-03T23:37:20.518Z,5.80
2018-01-03T23:39:53.376Z,5.17
2018-01-03T23:42:22.058Z,5.70
2018-01-03T23:45:06.582Z,6.10
2018-01-03T23:47:35.300Z,5.87
2018-01-03T23:50:02.192Z,5.70
2018-01-03T23:52:46.894Z,4.77
2018-01-03T23:55:17.268Z,4.23
